createdAt,value
2018-10-16T00:01:36.225Z,100107.30
2018-10-16T00:04:39.299Z,100106.66
2018-10-16T00:07:42.230Z,100112.80
2018-10-16T00:10:46.247Z,100111.08
2018-10-16T00:13:49.149Z,100114.08
2018-10-16T00:16:52.117Z,100115.28
2018-10-16T00:19:55.076Z,100120.91
2018-10-16T00:22:57.990Z,100124.45
2018-10-16T00:26:00.939Z,100119.81
2018-10-16T00:29:03.890Z,100123.35
2018-10-16T00:32:06.825Z,100119.72
2018-10-16T00:35:10.261Z,100132.80
2018-10-16T00:38:13.213Z,100128.87
2018-10-16T00:41:16.139Z,100128.27
2018-10-16T00:44:19.054Z,100123.00
2018-10-16T00:47:21.978Z,100125.55
2018-10-16T00:50:24.932Z,100130.67
2018-10-16T00:53:27.866Z,100126.76
2018-10-16T00:56:30.786Z,100127.63
2018-10-16T00:59:33.713Z,100129.06
2018-10-16T01:02:36.953Z,100135.32
2018-10-16T01:05:39.853Z,100143.17
2018-10-16T01:08:42.740Z,100141.94
2018-10-16T01:11:45.712Z,100145.69
2018-10-16T01:14:48.605Z,100144.45
2018-10-16T01:17:51.577Z,100145.15
2018-10-16T01:20:54.548Z,100145.95
2018-10-16T01:23:57.545Z,100146.49
2018-10-16T01:27:00.539Z,100149.70
2018-10-16T01:30:03.630Z,100149.34
2018-10-16T01:33:06.585Z,100147.94
2018-10-16T01:36:10.664Z,100153.04
2018-10-16T01:39:13.580Z,100146.25
2018-10-16T01:42:16.502Z,100145.09
2018-10-16T01:45:19.473Z,100144.46
2018-10-16T01:48:22.418Z,100144.22
2018-10-16T01:51:25.373Z,100150.06
2018-10-16T01:54:28.267Z,100147.92
2018-10-16T01:57:31.197Z,100148.87
2018-10-16T02:00:34.158Z,100143.35
2018-10-16T02:03:37.093Z,100139.34
2018-10-16T02:06:40.129Z,100145.00
2018-10-16T02:09:43.006Z,100150.77
2018-10-16T02:12:45.963Z,100154.16
2018-10-16T02:15:48.961Z,100157.53
2018-10-16T02:18:51.940Z,100159.52
2018-10-16T02:21:54.893Z,100157.05
2018-10-16T02:24:57.842Z,100159.34
2018-10-16T02:28:00.959Z,100159.97
2018-10-16T02:31:03.966Z,100151.02
2018-10-16T02:34:06.884Z,100154.28
2018-10-16T02:37:10.017Z,100160.28
2018-10-16T02:40:12.943Z,100162.81
2018-10-16T02:43:15.885Z,100168.54
2018-10-16T02:46:18.839Z,100166.05
2018-10-16T02:49:21.778Z,100168.47
2018-10-16T02:52:24.722Z,100171.17
2018-10-16T02:55:27.615Z,100170.20
2018-10-16T02:58:30.521Z,100179.67
2018-10-16T03:01:33.395Z,100176.20
2018-10-16T03:04:36.400Z,100174.86
2018-10-16T03:07:39.329Z,100176.03
2018-10-16T03:10:42.226Z,100182.42
2018-10-16T03:13:45.126Z,100179.34
2018-10-16T03:16:48.167Z,100178.70
2018-10-16T03:19:51.170Z,100179.04
2018-10-16T03:22:54.137Z,100183.52
2018-10-16T03:25:57.034Z,100184.49
2018-10-16T03:29:00.020Z,100187.21
2018-10-16T03:32:02.938Z,100187.44
2018-10-16T03:35:06.546Z,100184.83
2018-10-16T03:38:09.467Z,100184.23
2018-10-16T03:41:12.362Z,100197.85
2018-10-16T03:44:15.285Z,100202.66
2018-10-16T03:47:18.265Z,100203.44
2018-10-16T03:50:21.174Z,100205.95
2018-10-16T03:53:24.085Z,100211.47
2018-10-16T03:56:27.241Z,100212.27
2018-10-16T03:59:30.203Z,100215.82
2018-10-16T04:02:33.157Z,100217.86
2018-10-16T04:05:36.141Z,100212.74
2018-10-16T04:08:39.069Z,100217.83
2018-10-16T04:11:41.994Z,100220.27
2018-10-16T04:14:44.879Z,100217.28
2018-10-16T04:17:47.849Z,100213.94
2018-10-16T04:20:50.805Z,100210.76
2018-10-16T04:23:53.701Z,100209.80
2018-10-16T04:26:56.626Z,100219.09
2018-10-16T04:29:59.534Z,100219.96
2018-10-16T04:33:02.429Z,100224.11
2018-10-16T04:36:05.573Z,100223.81
2018-10-16T04:39:12.797Z,100224.05
2018-10-16T04:42:15.752Z,100226.56
2018-10-16T04:45:18.623Z,100226.53
2018-10-16T04:48:21.897Z,100228.41
2018-10-16T04:51:24.758Z,100221.73
2018-10-16T04:54:27.653Z,100220.95
2018-10-16T04:57:30.593Z,100229.23
2018-10-16T05:00:33.617Z,100231.27
2018-10-16T05:03:36.690Z,100231.45
2018-10-16T05:06:39.594Z,100225.33
2018-10-16T05:09:42.526Z,100230.41
2018-10-16T05:12:45.484Z,100231.38
2018-10-16T05:15:48.401Z,100236.67
2018-10-16T05:18:51.468Z,100237.14
2018-10-16T05:21:54.417Z,100241.33
2018-10-16T05:24:57.325Z,100243.66
2018-10-16T05:28:00.238Z,100244.13
2018-10-16T05:31:03.385Z,100250.25
2018-10-16T05:34:07.238Z,100251.81
2018-10-16T05:37:10.110Z,100246.48
2018-10-16T05:40:13.036Z,100249.14
2018-10-16T05:43:15.886Z,100248.61
2018-10-16T05:46:18.885Z,100251.46
2018-10-16T05:49:21.882Z,100252.68
2018-10-16T05:52:24.833Z,100257.28
2018-10-16T05:55:27.834Z,100263.58
2018-10-16T05:58:30.774Z,100259.56
2018-10-16T06:01:33.682Z,100263.48
2018-10-16T06:04:36.593Z,100270.27
2018-10-16T06:07:39.795Z,100270.09
2018-10-16T06:10:42.735Z,100272.53
2018-10-16T06:13:45.724Z,100278.47
2018-10-16T06:16:48.724Z,100282.44
2018-10-16T06:19:51.626Z,100281.74
2018-10-16T06:22:55.304Z,100286.22
2018-10-16T06:25:58.281Z,100291.79
2018-10-16T06:29:01.302Z,100304.36
2018-10-16T06:32:04.429Z,100298.08
2018-10-16T06:35:08.449Z,100306.86
2018-10-16T06:38:11.388Z,100308.44
2018-10-16T06:41:14.420Z,100313.83
2018-10-16T06:44:17.222Z,100317.00
2018-10-16T06:47:20.207Z,100313.16
2018-10-16T06:50:23.026Z,100315.41
2018-10-16T06:53:26.011Z,100319.48
2018-10-16T06:56:29.032Z,100311.05
2018-10-16T06:59:31.977Z,100322.84
2018-10-16T07:02:34.884Z,100322.63
2018-10-16T07:05:37.794Z,100313.61
2018-10-16T07:08:40.795Z,100315.47
2018-10-16T07:11:43.773Z,100317.55
2018-10-16T07:14:46.764Z,100321.72
2018-10-16T07:17:49.721Z,100320.57
2018-10-16T07:20:52.685Z,100329.10
2018-10-16T07:23:55.706Z,100328.05
2018-10-16T07:26:58.586Z,100328.36
2018-10-16T07:30:01.542Z,100333.90
2018-10-16T07:33:04.489Z,100329.30
2018-10-16T07:36:07.395Z,100334.40
2018-10-16T07:39:11.913Z,100333.34
2018-10-16T07:42:14.840Z,100339.38
2018-10-16T07:45:17.766Z,100339.72
2018-10-16T07:48:20.761Z,100336.70
2018-10-16T07:51:23.661Z,100339.06
2018-10-16T07:54:26.574Z,100335.45
2018-10-16T07:57:29.449Z,100338.28
2018-10-16T08:00:32.571Z,100343.63
2018-10-16T08:03:35.636Z,100339.25
2018-10-16T08:06:38.741Z,100338.50
2018-10-16T08:09:41.903Z,100335.95
2018-10-16T08:12:45.064Z,100336.61
2018-10-16T08:15:48.348Z,100334.89
2018-10-16T08:18:51.683Z,100335.73
2018-10-16T08:21:55.173Z,100327.98
2018-10-16T08:24:58.192Z,100329.60
2018-10-16T08:28:01.465Z,100332.45
2018-10-16T08:31:04.805Z,100339.15
2018-10-16T08:34:07.872Z,100329.16
2018-10-16T08:37:13.469Z,100334.98
2018-10-16T08:40:16.471Z,100331.95
2018-10-16T08:43:42.388Z,100337.14
2018-10-16T08:47:02.795Z,100340.16
2018-10-16T08:50:23.273Z,100335.52
2018-10-16T08:53:26.230Z,100339.80
2018-10-16T08:56:29.286Z,100340.11
2018-10-16T08:59:32.232Z,100338.95
2018-10-16T09:02:35.149Z,100339.29
2018-10-16T09:05:38.080Z,100344.05
2018-10-16T09:08:41.032Z,100338.39
2018-10-16T09:11:45.184Z,100339.97
2018-10-16T09:14:48.122Z,100339.13
2018-10-16T09:17:51.085Z,100338.61
2018-10-16T09:20:54.445Z,100340.41
2018-10-16T09:23:57.321Z,100336.58
2018-10-16T09:27:00.265Z,100346.09
2018-10-16T09:30:03.668Z,100347.33
2018-10-16T09:33:06.585Z,100345.37
2018-10-16T09:36:09.526Z,100343.62
2018-10-16T09:39:12.529Z,100344.25
2018-10-16T09:42:15.478Z,100346.28
2018-10-16T09:45:18.413Z,100347.62
2018-10-16T09:48:22.295Z,100353.31
2018-10-16T09:51:26.825Z,100352.20
2018-10-16T09:54:29.742Z,100357.48
2018-10-16T09:57:32.649Z,100368.22
2018-10-16T10:00:41.178Z,100357.96
2018-10-16T10:03:44.089Z,100363.18
2018-10-16T10:06:47.037Z,100362.42
2018-10-16T10:09:49.903Z,100369.89
2018-10-16T10:12:52.861Z,100362.13
2018-10-16T10:15:55.809Z,100361.80
2018-10-16T10:18:58.753Z,100367.24
2018-10-16T10:22:01.715Z,100360.06
2018-10-16T10:25:05.503Z,100361.34
2018-10-16T10:28:08.434Z,100361.19
2018-10-16T10:31:11.370Z,100360.24
2018-10-16T10:34:14.282Z,100352.27
2018-10-16T10:37:17.200Z,100358.20
2018-10-16T10:40:20.137Z,100350.77
2018-10-16T10:43:23.017Z,100356.96
2018-10-16T10:46:25.971Z,100352.86
2018-10-16T10:49:28.928Z,100348.17
2018-10-16T10:52:31.859Z,100351.80
2018-10-16T10:55:34.796Z,100348.98
2018-10-16T10:58:37.731Z,100344.02
2018-10-16T11:01:40.677Z,100337.27
2018-10-16T11:04:43.632Z,100331.45
2018-10-16T11:07:46.567Z,100328.16
2018-10-16T11:10:49.500Z,100329.89
2018-10-16T11:13:52.432Z,100333.86
2018-10-16T11:16:55.361Z,100323.64
2018-10-16T11:19:58.292Z,100328.15
2018-10-16T11:23:01.386Z,100328.08
2018-10-16T11:26:04.637Z,100326.31
2018-10-16T11:29:07.590Z,100327.98
2018-10-16T11:32:10.534Z,100325.05
2018-10-16T11:35:14.144Z,100326.27
2018-10-16T11:38:17.104Z,100330.22
2018-10-16T11:41:20.030Z,100323.44
2018-10-16T11:44:22.977Z,100323.30
2018-10-16T11:47:25.866Z,100326.86
2018-10-16T11:50:28.758Z,100320.95
2018-10-16T11:53:31.674Z,100327.65
2018-10-16T11:56:34.616Z,100329.95
2018-10-16T11:59:37.514Z,100330.38
2018-10-16T12:02:40.610Z,100323.63
2018-10-16T12:05:43.478Z,100330.95
2018-10-16T12:08:46.480Z,100328.39
2018-10-16T12:11:50.836Z,100333.38
2018-10-16T12:14:53.767Z,100334.14
2018-10-16T12:18:06.833Z,100331.80
2018-10-16T12:21:13.487Z,100332.25
2018-10-16T12:24:16.459Z,100340.31
2018-10-16T12:27:19.359Z,100338.34
2018-10-16T12:30:22.309Z,100332.59
2018-10-16T12:33:25.202Z,100330.47
2018-10-16T12:36:28.169Z,100320.95
2018-10-16T12:39:31.112Z,100319.20
2018-10-16T12:42:34.012Z,100319.14
2018-10-16T12:45:36.918Z,100322.45
2018-10-16T12:48:39.838Z,100323.64
2018-10-16T12:51:42.781Z,100323.54
2018-10-16T12:54:45.749Z,100326.91
2018-10-16T12:57:48.710Z,100326.91
2018-10-16T13:00:51.688Z,100330.27
2018-10-16T13:03:54.572Z,100326.89
2018-10-16T13:07:02.064Z,100331.86
2018-10-16T13:10:18.490Z,100326.78
2018-10-16T13:13:21.425Z,100331.44
2018-10-16T13:16:24.381Z,100324.86
2018-10-16T13:19:27.309Z,100332.84
2018-10-16T13:22:30.266Z,100329.77
2018-10-16T13:25:33.143Z,100330.50
2018-10-16T13:28:36.117Z,100324.78
2018-10-16T13:31:39.037Z,100327.61
2018-10-16T13:34:42.018Z,100322.13
2018-10-16T13:37:45.624Z,100327.23
2018-10-16T13:40:48.624Z,100325.71
2018-10-16T13:43:51.541Z,100327.33
2018-10-16T13:46:54.446Z,100325.08
2018-10-16T13:49:57.346Z,100320.89
2018-10-16T13:53:00.303Z,100320.45
2018-10-16T13:56:03.278Z,100311.97
2018-10-16T13:59:06.166Z,100319.67
2018-10-16T14:02:09.085Z,100312.41
2018-10-16T14:05:12.052Z,100312.69
2018-10-16T14:08:15.058Z,100319.92
2018-10-16T14:11:17.973Z,100317.73
2018-10-16T14:14:20.889Z,100318.31
2018-10-16T14:17:23.829Z,100325.07
2018-10-16T14:20:26.806Z,100322.59
2018-10-16T14:23:29.725Z,100325.95
2018-10-16T14:26:32.672Z,100315.55
2018-10-16T14:29:35.605Z,100320.02
2018-10-16T14:32:38.825Z,100317.28
2018-10-16T14:35:41.732Z,100326.91
2018-10-16T14:38:44.632Z,100318.91
2018-10-16T14:41:47.532Z,100316.00
2018-10-16T14:44:50.409Z,100319.13
2018-10-16T14:47:53.396Z,100318.18
2018-10-16T14:50:56.304Z,100318.23
2018-10-16T14:53:59.630Z,100318.07
2018-10-16T14:57:02.621Z,100325.66
2018-10-16T15:00:08.394Z,100317.80
2018-10-16T15:03:11.322Z,100317.89
2018-10-16T15:06:14.222Z,100315.59
2018-10-16T15:09:17.171Z,100315.50
2018-10-16T15:12:24.709Z,100312.72
2018-10-16T15:15:27.664Z,100316.39
2018-10-16T15:18:30.565Z,100318.13
2018-10-16T15:21:33.504Z,100316.98
2018-10-16T15:24:36.442Z,100313.34
2018-10-16T15:27:39.353Z,100324.58
2018-10-16T15:30:42.293Z,100321.05
2018-10-16T15:33:45.209Z,100325.11
2018-10-16T15:36:48.094Z,100326.72
2018-10-16T15:39:51.014Z,100330.38
2018-10-16T15:42:53.928Z,100329.55
2018-10-16T15:45:56.909Z,100332.36
2018-10-16T15:48:59.960Z,100323.50
2018-10-16T15:52:02.893Z,100332.33
2018-10-16T15:55:06.457Z,100327.67
2018-10-16T15:58:09.516Z,100336.02
2018-10-16T16:01:12.339Z,100332.58
2018-10-16T16:04:15.333Z,100327.98
2018-10-16T16:07:18.269Z,100335.23
2018-10-16T16:10:21.201Z,100335.39
2018-10-16T16:13:24.134Z,100342.30
2018-10-16T16:16:27.056Z,100334.78
2018-10-16T16:19:29.994Z,100342.64
2018-10-16T16:22:32.924Z,100344.34
2018-10-16T16:25:35.829Z,100342.94
2018-10-16T16:28:38.726Z,100344.02
2018-10-16T16:31:41.641Z,100344.61
2018-10-16T16:34:44.494Z,100342.13
2018-10-16T16:37:47.388Z,100347.31
2018-10-16T16:40:50.275Z,100344.22
2018-10-16T16:43:53.359Z,100355.36
2018-10-16T16:46:56.145Z,100352.22
2018-10-16T16:49:59.132Z,100349.21
2018-10-16T16:53:02.164Z,100354.44
2018-10-16T16:56:05.199Z,100354.70
2018-10-16T16:59:08.129Z,100354.85
2018-10-16T17:02:11.077Z,100353.64
2018-10-16T17:05:14.500Z,100356.33
2018-10-16T17:08:17.481Z,100361.13
2018-10-16T17:11:20.418Z,100363.20
2018-10-16T17:14:23.324Z,100363.89
2018-10-16T17:17:26.228Z,100361.25
2018-10-16T17:20:29.150Z,100354.84
2018-10-16T17:23:32.115Z,100366.23
2018-10-16T17:26:35.071Z,100363.83
2018-10-16T17:29:37.949Z,100363.35
2018-10-16T17:32:41.469Z,100370.08
2018-10-16T17:35:44.397Z,100370.72
2018-10-16T17:38:47.365Z,100369.77
2018-10-16T17:41:50.344Z,100374.03
2018-10-16T17:44:53.320Z,100376.72
2018-10-16T17:47:56.352Z,100376.63
2018-10-16T17:50:59.150Z,100372.13
2018-10-16T17:54:01.994Z,100377.95
2018-10-16T17:57:05.580Z,100372.92
2018-10-16T18:00:13.027Z,100371.42
2018-10-16T18:03:16.033Z,100374.34
2018-10-16T18:06:18.826Z,100380.25
2018-10-16T18:09:21.750Z,100375.76
2018-10-16T18:12:25.488Z,100380.88
2018-10-16T18:15:28.437Z,100388.77
2018-10-16T18:18:31.400Z,100379.00
2018-10-16T18:21:34.347Z,100384.75
2018-10-16T18:24:37.281Z,100380.27
2018-10-16T18:27:40.894Z,100381.44
2018-10-16T18:30:43.908Z,100383.17
2018-10-16T18:33:46.814Z,100380.11
2018-10-16T18:36:49.737Z,100376.61
2018-10-16T18:39:52.716Z,100380.09
2018-10-16T18:42:55.673Z,100377.88
2018-10-16T18:45:58.614Z,100384.05
2018-10-16T18:49:01.553Z,100378.44
2018-10-16T18:52:04.745Z,100385.75
2018-10-16T18:55:09.486Z,100386.86
2018-10-16T18:58:12.370Z,100394.60
2018-10-16T19:01:15.282Z,100388.77
2018-10-16T19:04:18.185Z,100389.09
2018-10-16T19:07:21.110Z,100388.06
2018-10-16T19:10:24.046Z,100391.92
2018-10-16T19:13:26.946Z,100393.33
2018-10-16T19:16:29.916Z,100393.33
2018-10-16T19:19:32.859Z,100390.72
2018-10-16T19:22:35.734Z,100390.65
2018-10-16T19:25:38.632Z,100386.80
2018-10-16T19:28:41.593Z,100391.52
2018-10-16T19:31:44.504Z,100389.80
2018-10-16T19:34:47.422Z,100387.36
2018-10-16T19:37:50.425Z,100392.25
2018-10-16T19:40:53.302Z,100390.03
2018-10-16T19:43:56.241Z,100395.70
2018-10-16T19:46:59.167Z,100400.70
2018-10-16T19:50:02.169Z,100396.22
2018-10-16T19:53:05.116Z,100396.11
2018-10-16T19:56:08.046Z,100400.97
2018-10-16T19:59:10.899Z,100402.58
2018-10-16T20:02:13.858Z,100405.39
2018-10-16T20:05:16.774Z,100405.91
2018-10-16T20:08:19.738Z,100407.89
2018-10-16T20:11:22.647Z,100412.57
2018-10-16T20:14:25.677Z,100406.38
2018-10-16T20:17:28.629Z,100411.78
2018-10-16T20:20:31.518Z,100414.29
2018-10-16T20:23:34.434Z,100417.44
2018-10-16T20:26:37.414Z,100413.94
2018-10-16T20:29:40.341Z,100405.44
2018-10-16T20:32:43.311Z,100412.02
2018-10-16T20:35:46.248Z,100405.16
2018-10-16T20:38:49.199Z,100412.30
2018-10-16T20:41:52.190Z,100397.34
2018-10-16T20:44:55.096Z,100404.20
2018-10-16T20:47:58.038Z,100401.94
2018-10-16T20:51:00.969Z,100400.50
2018-10-16T20:54:04.165Z,100400.83
2018-10-16T20:57:07.128Z,100410.00
2018-10-16T21:00:10.085Z,100413.89
2018-10-16T21:03:13.019Z,100410.11
2018-10-16T21:06:16.221Z,100408.36
2018-10-16T21:09:18.945Z,100409.45
2018-10-16T21:12:21.995Z,100404.16
2018-10-16T21:15:24.928Z,100401.02
2018-10-16T21:18:27.866Z,100402.19
2018-10-16T21:21:30.941Z,100403.00
2018-10-16T21:24:33.841Z,100406.14
2018-10-16T21:27:36.839Z,100406.13
2018-10-16T21:30:39.730Z,100401.83
2018-10-16T21:33:42.697Z,100398.93
2018-10-16T21:36:45.581Z,100399.09
2018-10-16T21:39:48.556Z,100394.49
2018-10-16T21:42:51.543Z,100397.63
2018-10-16T21:45:54.440Z,100392.15
2018-10-16T21:48:57.368Z,100396.02
2018-10-16T21:52:00.258Z,100391.21
2018-10-16T21:55:03.232Z,100394.64
2018-10-16T21:58:06.256Z,100391.44
2018-10-16T22:01:10.430Z,100398.22
2018-10-16T22:04:13.266Z,100392.43
2018-10-16T22:07:16.282Z,100395.39
2018-10-16T22:10:19.599Z,100394.40
2018-10-16T22:13:22.494Z,100399.16
2018-10-16T22:16:25.488Z,100396.70
2018-10-16T22:19:28.445Z,100397.79
2018-10-16T22:22:31.362Z,100394.64
2018-10-16T22:25:34.288Z,100393.87
2018-10-16T22:28:37.250Z,100390.75
2018-10-16T22:31:40.165Z,100393.09
2018-10-16T22:34:43.083Z,100397.75
2018-10-16T22:37:46.019Z,100393.08
2018-10-16T22:40:48.954Z,100385.15
2018-10-16T22:43:51.916Z,100386.95
2018-10-16T22:46:54.853Z,100386.34
2018-10-16T22:49:57.833Z,100380.86
2018-10-16T22:53:00.789Z,100378.52
2018-10-16T22:56:03.785Z,100375.00
2018-10-16T22:59:06.736Z,100368.52
2018-10-16T23:02:09.660Z,100373.04
2018-10-16T23:05:12.662Z,100375.89
2018-10-16T23:08:15.549Z,100375.50
2018-10-16T23:11:18.583Z,100374.31
2018-10-16T23:14:21.383Z,100367.81
2018-10-16T23:17:24.376Z,100373.84
2018-10-16T23:20:27.425Z,100366.37
2018-10-16T23:23:30.317Z,100373.72
2018-10-16T23:26:33.316Z,100374.78
2018-10-16T23:29:36.208Z,100375.59
2018-10-16T23:32:39.090Z,100376.16
2018-10-16T23:35:41.997Z,100374.91
2018-10-16T23:38:44.871Z,100371.39
2018-10-16T23:41:47.828Z,100374.27
2018-10-16T23:44:50.720Z,100369.81
2018-10-16T23:47:53.689Z,100369.13
2018-10-16T23:50:56.608Z,100365.48
2018-10-16T23:53:59.606Z,100361.06
2018-10-16T23:57:02.486Z,100365.14
